createdAt,value
2019-05-11T00:00:40.698Z,16.33
2019-05-11T00:03:09.133Z,12.33
2019-05-11T00:05:37.537Z,19.57
2019-05-11T00:08:06.121Z,13.63
2019-05-11T00:10:34.509Z,13.13
2019-05-11T00:13:02.964Z,14.77
2019-05-11T00:15:31.374Z,15.33
2019-05-11T00:17:59.794Z,12.17
2019-05-11T00:20:28.284Z,19.03
2019-05-11T00:22:56.679Z,12.37
2019-05-11T00:25:25.211Z,12.90
2019-05-11T00:27:53.614Z,13.87
2019-05-11T00:30:22.034Z,11.00
2019-05-11T00:32:50.456Z,13.07
2019-05-11T00:35:18.870Z,15.47
2019-05-11T00:37:47.315Z,14.60
2019-05-11T00:40:15.867Z,14.23
2019-05-11T00:42:44.364Z,13.20
2019-05-11T00:45:13.000Z,18.40
2019-05-11T00:47:41.460Z,13.50
2019-05-11T00:50:11.046Z,17.27
2019-05-11T00:52:39.441Z,12.30
2019-05-11T00:55:08.823Z,18.20
2019-05-11T00:57:37.225Z,11.17
2019-05-11T01:00:08.274Z,13.80
2019-05-11T01:02:36.860Z,18.43
2019-05-11T01:05:06.708Z,13.20
2019-05-11T01:07:35.195Z,13.00
2019-05-11T01:10:21.819Z,14.67
2019-05-11T01:12:37.386Z,16.43
2019-05-11T01:15:06.274Z,19.87
2019-05-11T01:17:34.676Z,17.30
2019-05-11T01:20:03.274Z,18.77
2019-05-11T01:22:31.698Z,16.07
2019-05-11T01:25:00.124Z,16.27
2019-05-11T01:27:28.545Z,15.73
2019-05-11T01:29:57.021Z,15.73
2019-05-11T01:32:25.446Z,15.80
2019-05-11T01:34:53.855Z,15.43
2019-05-11T01:37:22.334Z,16.50
2019-05-11T01:39:50.785Z,19.37
2019-05-11T01:42:19.210Z,22.60
2019-05-11T01:44:47.627Z,15.00
2019-05-11T01:47:16.054Z,18.97
2019-05-11T01:49:44.465Z,29.17
2019-05-11T01:52:12.869Z,18.30
2019-05-11T01:54:41.378Z,13.73
2019-05-11T01:57:09.806Z,14.87
2019-05-11T01:59:38.376Z,14.70
2019-05-11T02:02:06.806Z,14.93
2019-05-11T02:04:35.217Z,18.57
2019-05-11T02:07:03.722Z,18.80
2019-05-11T02:09:32.206Z,18.13
2019-05-11T02:12:00.633Z,15.57
2019-05-11T02:14:29.203Z,18.40
2019-05-11T02:16:57.816Z,17.63
2019-05-11T02:19:26.266Z,17.47
2019-05-11T02:21:54.665Z,15.13
2019-05-11T02:24:23.445Z,19.17
2019-05-11T02:26:51.878Z,15.17
2019-05-11T02:29:20.314Z,16.87
2019-05-11T02:31:48.716Z,15.97
2019-05-11T02:34:17.143Z,15.93
2019-05-11T02:36:45.573Z,16.87
2019-05-11T02:39:14.047Z,19.33
2019-05-11T02:41:43.015Z,17.40
2019-05-11T02:44:11.584Z,19.17
2019-05-11T02:46:40.013Z,22.00
2019-05-11T02:49:08.495Z,21.20
2019-05-11T02:51:38.568Z,20.13
2019-05-11T02:54:07.969Z,18.00
2019-05-11T02:56:36.396Z,16.50
2019-05-11T02:59:04.876Z,15.73
2019-05-11T03:01:33.288Z,18.23
2019-05-11T03:04:01.723Z,17.80
2019-05-11T03:06:30.149Z,22.80
2019-05-11T03:08:58.524Z,17.30
2019-05-11T03:11:26.958Z,25.90
2019-05-11T03:13:55.369Z,17.17
2019-05-11T03:16:23.789Z,21.07
2019-05-11T03:18:52.312Z,16.83
2019-05-11T03:21:20.719Z,18.23
2019-05-11T03:23:49.176Z,22.83
2019-05-11T03:26:17.619Z,20.13
2019-05-11T03:28:46.033Z,24.73
2019-05-11T03:31:14.476Z,21.87
2019-05-11T03:33:42.882Z,18.47
2019-05-11T03:36:11.375Z,21.03
2019-05-11T03:38:39.771Z,23.07
2019-05-11T03:41:08.215Z,23.63
2019-05-11T03:43:36.685Z,34.00
2019-05-11T03:46:05.110Z,21.90
2019-05-11T03:48:33.536Z,19.70
2019-05-11T03:51:01.947Z,21.40
2019-05-11T03:53:30.344Z,25.60
2019-05-11T03:55:58.829Z,20.97
2019-05-11T03:58:27.300Z,23.67
2019-05-11T04:00:55.691Z,21.20
2019-05-11T04:03:24.169Z,22.60
2019-05-11T04:05:52.597Z,23.07
2019-05-11T04:08:21.022Z,28.73
2019-05-11T04:10:49.433Z,23.10
2019-05-11T04:13:17.826Z,28.73
2019-05-11T04:15:46.254Z,24.20
2019-05-11T04:18:14.699Z,25.90
2019-05-11T04:20:43.171Z,26.70
2019-05-11T04:23:11.607Z,28.17
2019-05-11T04:25:40.072Z,28.83
2019-05-11T04:28:08.576Z,29.00
2019-05-11T04:30:37.015Z,29.97
2019-05-11T04:33:05.498Z,31.00
2019-05-11T04:35:34.100Z,34.60
2019-05-11T04:38:02.517Z,26.33
2019-05-11T04:40:31.074Z,29.20
2019-05-11T04:42:59.495Z,26.77
2019-05-11T04:45:30.307Z,28.53
2019-05-11T04:47:58.057Z,26.00
2019-05-11T04:50:26.568Z,29.77
2019-05-11T04:52:55.065Z,31.80
2019-05-11T04:55:23.564Z,27.07
2019-05-11T04:57:52.004Z,29.53
2019-05-11T05:00:20.483Z,26.93
2019-05-11T05:02:48.885Z,25.17
2019-05-11T05:05:17.306Z,26.13
2019-05-11T05:07:48.893Z,24.90
2019-05-11T05:10:19.947Z,25.87
2019-05-11T05:12:50.396Z,25.30
2019-05-11T05:15:16.306Z,19.80
2019-05-11T05:17:44.790Z,21.03
2019-05-11T05:20:13.658Z,20.33
2019-05-11T05:22:42.082Z,19.90
2019-05-11T05:25:10.642Z,22.17
2019-05-11T05:27:39.105Z,19.37
2019-05-11T05:30:08.292Z,23.27
2019-05-11T05:32:37.212Z,25.53
2019-05-11T05:35:07.383Z,20.23
2019-05-11T05:37:37.030Z,21.37
2019-05-11T05:40:05.891Z,25.30
2019-05-11T05:42:34.369Z,30.90
2019-05-11T05:45:02.769Z,19.90
2019-05-11T05:47:31.201Z,26.20
2019-05-11T05:49:59.612Z,25.43
2019-05-11T05:52:28.049Z,22.07
2019-05-11T05:54:56.448Z,22.73
2019-05-11T05:57:24.874Z,21.70
2019-05-11T05:59:53.298Z,19.90
2019-05-11T06:02:21.737Z,18.00
2019-05-11T06:04:50.185Z,19.73
2019-05-11T06:07:18.588Z,25.40
2019-05-11T06:09:46.986Z,25.20
2019-05-11T06:12:15.519Z,17.40
2019-05-11T06:14:43.931Z,21.00
2019-05-11T06:17:12.525Z,26.77
2019-05-11T06:19:40.911Z,19.60
2019-05-11T06:22:09.386Z,18.93
2019-05-11T06:24:37.803Z,19.77
2019-05-11T06:27:06.338Z,17.83
2019-05-11T06:29:34.822Z,18.90
2019-05-11T06:32:03.263Z,23.30
2019-05-11T06:34:31.650Z,20.23
2019-05-11T06:37:00.190Z,18.00
2019-05-11T06:39:28.592Z,18.27
2019-05-11T06:41:57.009Z,14.87
2019-05-11T06:44:25.429Z,19.30
2019-05-11T06:46:53.878Z,21.07
2019-05-11T06:49:22.299Z,18.87
2019-05-11T06:51:50.726Z,22.73
2019-05-11T06:54:19.149Z,25.57
2019-05-11T06:56:47.573Z,25.00
2019-05-11T06:59:16.010Z,23.57
2019-05-11T07:01:44.484Z,21.07
2019-05-11T07:04:13.069Z,22.77
2019-05-11T07:06:41.478Z,24.10
2019-05-11T07:09:09.907Z,22.03
2019-05-11T07:11:38.329Z,23.93
2019-05-11T07:14:19.826Z,25.63
2019-05-11T07:16:36.941Z,25.57
2019-05-11T07:19:05.463Z,23.50
2019-05-11T07:21:33.920Z,23.97
2019-05-11T07:24:02.460Z,26.50
2019-05-11T07:26:30.916Z,23.87
2019-05-11T07:28:59.342Z,24.53
2019-05-11T07:31:27.777Z,29.50
2019-05-11T07:33:58.589Z,25.27
2019-05-11T07:36:28.237Z,24.90
2019-05-11T07:38:58.028Z,25.70
2019-05-11T07:41:28.083Z,30.00
2019-05-11T07:43:58.888Z,32.33
2019-05-11T07:46:28.855Z,33.00
2019-05-11T07:48:58.498Z,38.50
2019-05-11T07:51:28.736Z,38.40
2019-05-11T07:53:57.880Z,33.87
2019-05-11T07:56:28.562Z,34.87
2019-05-11T07:58:58.103Z,34.20
2019-05-11T08:01:28.166Z,34.57
2019-05-11T08:03:58.651Z,39.63
2019-05-11T08:06:28.528Z,34.27
2019-05-11T08:08:58.844Z,39.17
2019-05-11T08:11:30.787Z,36.47
2019-05-11T08:13:58.434Z,37.43
2019-05-11T08:16:28.545Z,35.60
2019-05-11T08:18:58.830Z,37.60
2019-05-11T08:21:28.367Z,45.93
2019-05-11T08:23:58.801Z,43.53
2019-05-11T08:26:28.241Z,48.87
2019-05-11T08:28:57.871Z,47.03
2019-05-11T08:31:27.955Z,53.40
2019-05-11T08:33:58.327Z,54.00
2019-05-11T08:36:28.859Z,58.70
2019-05-11T08:38:58.490Z,66.80
2019-05-11T08:41:28.144Z,69.90
2019-05-11T08:43:58.665Z,69.87
2019-05-11T08:46:27.910Z,79.27
2019-05-11T08:48:56.592Z,77.97
2019-05-11T08:51:24.990Z,72.73
2019-05-11T08:53:53.599Z,75.00
2019-05-11T08:56:22.098Z,73.70
2019-05-11T08:58:50.519Z,71.07
2019-05-11T09:01:19.032Z,65.53
2019-05-11T09:03:47.883Z,70.23
2019-05-11T09:06:17.918Z,67.17
2019-05-11T09:08:49.136Z,64.53
2019-05-11T09:11:19.085Z,64.60
2019-05-11T09:13:48.864Z,57.93
2019-05-11T09:16:18.921Z,54.70
2019-05-11T09:18:48.094Z,61.97
2019-05-11T09:21:18.777Z,57.83
2019-05-11T09:23:48.611Z,59.00
2019-05-11T09:26:18.125Z,56.43
2019-05-11T09:28:47.685Z,57.90
2019-05-11T09:31:18.629Z,57.77
2019-05-11T09:33:48.017Z,57.40
2019-05-11T09:36:18.142Z,55.67
2019-05-11T09:38:48.859Z,53.97
2019-05-11T09:41:18.119Z,60.00
2019-05-11T09:43:48.383Z,54.40
2019-05-11T09:46:18.946Z,71.10
2019-05-11T09:48:48.316Z,51.70
2019-05-11T09:51:18.495Z,51.03
2019-05-11T09:53:48.321Z,49.40
2019-05-11T09:56:18.335Z,49.73
2019-05-11T09:58:48.015Z,51.50
2019-05-11T10:01:18.279Z,47.57
2019-05-11T10:03:48.125Z,44.33
2019-05-11T10:06:19.042Z,53.93
2019-05-11T10:08:48.659Z,40.33
2019-05-11T10:11:18.927Z,44.53
2019-05-11T10:13:47.823Z,47.13
2019-05-11T10:16:17.912Z,57.43
2019-05-11T10:18:48.876Z,44.27
2019-05-11T10:21:18.803Z,49.07
2019-05-11T10:23:48.966Z,51.80
2019-05-11T10:26:18.715Z,51.53
2019-05-11T10:28:48.194Z,52.30
2019-05-11T10:31:18.001Z,46.20
2019-05-11T10:33:48.864Z,41.80
2019-05-11T10:36:18.844Z,37.43
2019-05-11T10:38:48.754Z,35.10
2019-05-11T10:41:18.275Z,36.73
2019-05-11T10:43:48.905Z,32.37
2019-05-11T10:46:23.147Z,36.30
2019-05-11T10:48:48.311Z,55.40
2019-05-11T10:51:18.465Z,40.50
2019-05-11T10:53:51.296Z,28.30
2019-05-11T10:56:17.830Z,31.40
2019-05-11T10:58:48.293Z,35.90
2019-05-11T11:01:18.189Z,36.90
2019-05-11T11:03:48.315Z,36.10
2019-05-11T11:06:18.783Z,33.10
2019-05-11T11:08:48.636Z,37.73
2019-05-11T11:11:18.505Z,32.70
2019-05-11T11:13:48.044Z,26.93
2019-05-11T11:16:34.665Z,38.17
2019-05-11T11:18:48.588Z,31.77
2019-05-11T11:21:22.407Z,24.17
2019-05-11T11:23:48.161Z,24.63
2019-05-11T11:26:18.419Z,22.57
2019-05-11T11:28:47.702Z,25.03
2019-05-11T11:31:18.552Z,25.80
2019-05-11T11:33:48.871Z,28.07
2019-05-11T11:36:17.925Z,24.40
2019-05-11T11:38:47.911Z,24.70
2019-05-11T11:41:18.593Z,28.13
2019-05-11T11:43:48.399Z,25.90
2019-05-11T11:46:18.741Z,32.87
2019-05-11T11:48:48.938Z,30.13
2019-05-11T11:51:18.769Z,25.60
2019-05-11T11:53:48.042Z,24.40
2019-05-11T11:56:18.916Z,23.70
2019-05-11T11:58:48.750Z,24.87
2019-05-11T12:01:18.978Z,25.53
2019-05-11T12:03:48.869Z,20.80
2019-05-11T12:06:18.353Z,19.87
2019-05-11T12:08:49.614Z,28.20
2019-05-11T12:11:18.603Z,20.30
2019-05-11T12:13:47.896Z,26.60
2019-05-11T12:16:17.990Z,26.30
2019-05-11T12:18:48.655Z,20.80
2019-05-11T12:21:18.527Z,19.10
2019-05-11T12:23:48.531Z,19.60
2019-05-11T12:26:17.877Z,18.07
2019-05-11T12:28:48.719Z,26.53
2019-05-11T12:31:18.381Z,16.40
2019-05-11T12:33:48.197Z,15.80
2019-05-11T12:36:18.702Z,18.17
2019-05-11T12:38:48.792Z,13.50
2019-05-11T12:41:18.959Z,15.63
2019-05-11T12:43:49.000Z,11.40
2019-05-11T12:46:18.910Z,14.37
2019-05-11T12:48:48.441Z,13.23
2019-05-11T12:51:18.693Z,10.67
2019-05-11T12:53:47.765Z,10.40
2019-05-11T12:56:18.764Z,13.30
2019-05-11T12:58:48.983Z,12.23
2019-05-11T13:01:18.799Z,11.83
2019-05-11T13:03:49.230Z,10.43
2019-05-11T13:06:19.127Z,10.17
2019-05-11T13:08:48.058Z,15.20
2019-05-11T13:11:18.793Z,11.47
2019-05-11T13:13:48.438Z,13.80
2019-05-11T13:16:18.288Z,15.60
2019-05-11T13:18:48.716Z,14.67
2019-05-11T13:21:18.346Z,14.80
2019-05-11T13:23:48.824Z,12.27
2019-05-11T13:26:17.958Z,17.23
2019-05-11T13:28:48.416Z,15.70
2019-05-11T13:31:18.601Z,14.93
2019-05-11T13:33:48.050Z,16.90
2019-05-11T13:36:18.674Z,13.20
2019-05-11T13:38:48.384Z,13.60
2019-05-11T13:41:18.728Z,17.57
2019-05-11T13:43:48.608Z,25.97
2019-05-11T13:46:17.921Z,13.43
2019-05-11T13:48:47.667Z,12.50
2019-05-11T13:51:18.235Z,11.50
2019-05-11T13:53:48.141Z,12.30
2019-05-11T13:56:18.393Z,16.80
2019-05-11T13:58:48.811Z,12.33
2019-05-11T14:01:18.474Z,17.17
2019-05-11T14:03:48.385Z,20.00
2019-05-11T14:06:18.395Z,17.33
2019-05-11T14:08:48.214Z,10.27
2019-05-11T14:11:18.148Z,11.10
2019-05-11T14:13:47.997Z,11.90
2019-05-11T14:16:18.659Z,17.47
2019-05-11T14:18:48.849Z,13.27
2019-05-11T14:21:18.502Z,16.73
2019-05-11T14:23:48.365Z,8.97
2019-05-11T14:26:19.119Z,14.67
2019-05-11T14:31:18.978Z,10.57
2019-05-11T14:32:21.419Z,16.20
2019-05-11T14:33:48.838Z,10.70
2019-05-11T14:36:18.506Z,8.63
2019-05-11T14:38:48.768Z,9.00
2019-05-11T14:41:18.257Z,10.70
2019-05-11T14:43:48.784Z,14.27
2019-05-11T14:46:18.128Z,11.97
2019-05-11T14:48:48.056Z,9.37
2019-05-11T14:51:17.945Z,8.10
2019-05-11T14:53:48.096Z,12.93
2019-05-11T14:56:19.026Z,13.43
2019-05-11T14:58:49.023Z,8.87
2019-05-11T15:01:18.287Z,13.00
2019-05-11T15:03:48.570Z,11.27
2019-05-11T15:06:18.918Z,8.30
2019-05-11T15:08:47.903Z,11.80
2019-05-11T15:11:18.840Z,12.80
2019-05-11T15:13:48.874Z,9.83
2019-05-11T15:16:18.730Z,9.87
2019-05-11T15:18:48.488Z,10.77
2019-05-11T15:21:18.836Z,15.80
2019-05-11T15:23:47.806Z,13.10
2019-05-11T15:26:18.522Z,10.10
2019-05-11T15:28:48.614Z,10.73
2019-05-11T15:31:21.921Z,16.13
2019-05-11T15:33:48.853Z,10.90
2019-05-11T15:36:19.328Z,13.00
2019-05-11T15:38:48.099Z,15.43
2019-05-11T15:41:17.742Z,12.63
2019-05-11T15:43:48.075Z,10.63
2019-05-11T15:46:19.493Z,14.67
2019-05-11T15:48:56.608Z,14.50
2019-05-11T15:51:18.743Z,11.63
2019-05-11T15:53:47.617Z,12.00
2019-05-11T15:56:19.107Z,8.40
2019-05-11T15:58:48.619Z,12.53
2019-05-11T16:01:18.603Z,11.07
2019-05-11T16:03:49.677Z,12.20
2019-05-11T16:06:18.647Z,13.10
2019-05-11T16:08:47.147Z,12.47
2019-05-11T16:11:18.127Z,9.87
2019-05-11T16:13:48.225Z,11.17
2019-05-11T16:16:15.957Z,11.60
2019-05-11T16:18:44.386Z,11.03
2019-05-11T16:21:12.848Z,21.30
2019-05-11T16:23:41.274Z,13.90
2019-05-11T16:26:09.682Z,15.53
2019-05-11T16:28:38.463Z,12.30
2019-05-11T16:31:09.202Z,10.50
2019-05-11T16:33:37.266Z,11.53
2019-05-11T16:36:08.792Z,13.27
2019-05-11T16:38:38.023Z,10.07
2019-05-11T16:41:06.315Z,13.50
2019-05-11T16:43:34.803Z,10.80
2019-05-11T16:46:03.224Z,18.23
2019-05-11T16:48:31.724Z,11.93
2019-05-11T16:51:00.134Z,17.23
2019-05-11T16:53:28.608Z,11.47
2019-05-11T16:55:57.675Z,13.23
2019-05-11T16:58:27.809Z,12.27
2019-05-11T17:00:58.172Z,11.13
2019-05-11T17:03:27.973Z,14.50
2019-05-11T17:05:58.709Z,12.93
2019-05-11T17:08:27.634Z,11.87
2019-05-11T17:10:59.634Z,12.93
2019-05-11T17:13:28.258Z,20.23
2019-05-11T17:15:58.256Z,12.90
2019-05-11T17:18:28.325Z,8.80
2019-05-11T17:20:58.484Z,10.70
2019-05-11T17:23:30.965Z,7.70
2019-05-11T17:25:57.934Z,6.37
2019-05-11T17:28:26.539Z,4.10
2019-05-11T17:30:54.968Z,7.23
2019-05-11T17:33:23.470Z,7.07
2019-05-11T17:35:51.872Z,8.50
2019-05-11T17:38:20.453Z,3.10
2019-05-11T17:40:48.867Z,4.83
2019-05-11T17:43:18.131Z,4.80
2019-05-11T17:45:48.002Z,3.40
2019-05-11T17:48:17.873Z,5.33
2019-05-11T17:50:46.453Z,8.87
2019-05-11T17:53:14.858Z,4.60
2019-05-11T17:55:43.287Z,5.37
2019-05-11T17:58:11.702Z,5.60
2019-05-11T18:00:40.240Z,5.03
2019-05-11T18:03:11.157Z,4.40
2019-05-11T18:05:38.849Z,7.03
2019-05-11T18:08:08.758Z,6.13
2019-05-11T18:10:38.441Z,5.90
2019-05-11T18:13:07.034Z,5.83
2019-05-11T18:15:37.836Z,8.87
2019-05-11T18:18:05.884Z,6.97
2019-05-11T18:20:34.442Z,5.50
2019-05-11T18:23:02.949Z,6.07
2019-05-11T18:25:31.466Z,5.87
2019-05-11T18:27:59.897Z,5.87
2019-05-11T18:30:29.302Z,5.40
2019-05-11T18:32:59.518Z,4.30
2019-05-11T18:35:28.100Z,5.40
2019-05-11T18:37:56.515Z,7.10
2019-05-11T18:40:24.994Z,6.43
2019-05-11T18:42:53.434Z,6.30
2019-05-11T18:45:21.855Z,7.50
2019-05-11T18:47:50.294Z,5.60
2019-05-11T18:50:29.736Z,5.87
2019-05-11T18:52:49.295Z,9.93
2019-05-11T18:55:18.958Z,6.93
2019-05-11T18:57:48.997Z,5.50
2019-05-11T19:00:18.509Z,8.60
2019-05-11T19:02:49.351Z,6.97
2019-05-11T19:05:18.010Z,8.03
2019-05-11T19:07:48.158Z,6.40
2019-05-11T19:10:17.144Z,6.30
2019-05-11T19:12:45.608Z,6.67
2019-05-11T19:15:14.482Z,4.53
2019-05-11T19:17:42.898Z,7.90
2019-05-11T19:20:11.668Z,4.03
2019-05-11T19:22:40.168Z,10.83
2019-05-11T19:25:09.292Z,12.23
2019-05-11T19:27:37.752Z,16.13
2019-05-11T19:30:08.490Z,10.37
2019-05-11T19:32:38.378Z,11.60
2019-05-11T19:35:08.968Z,11.93
2019-05-11T19:37:38.595Z,8.47
2019-05-11T19:40:09.098Z,9.10
2019-05-11T19:42:58.712Z,10.03
2019-05-11T19:45:29.073Z,8.10
2019-05-11T19:47:57.749Z,4.10
2019-05-11T19:50:26.432Z,3.93
2019-05-11T19:52:54.874Z,6.07
2019-05-11T19:55:23.275Z,7.23
2019-05-11T19:57:51.707Z,7.90
2019-05-11T20:00:20.343Z,5.27
2019-05-11T20:02:48.743Z,9.53
2019-05-11T20:05:18.394Z,6.70
2019-05-11T20:07:49.301Z,11.07
2019-05-11T20:10:19.404Z,45.90
2019-05-11T20:12:48.593Z,7.17
2019-05-11T20:15:18.996Z,4.50
2019-05-11T20:20:37.679Z,8.47
2019-05-11T20:23:10.389Z,10.23
2019-05-11T20:25:38.884Z,11.07
2019-05-11T20:28:07.453Z,8.63
2019-05-11T20:30:36.146Z,10.00
2019-05-11T20:33:11.392Z,8.33
2019-05-11T20:35:43.807Z,6.53
2019-05-11T20:38:12.311Z,6.60
2019-05-11T20:40:48.478Z,4.90
2019-05-11T20:43:18.566Z,6.97
2019-05-11T20:45:48.637Z,4.23
2019-05-11T20:48:27.907Z,6.13
2019-05-11T20:51:00.786Z,6.10
2019-05-11T20:53:30.986Z,38.67
2019-05-11T20:56:01.043Z,9.60
2019-05-11T20:58:31.349Z,5.43
2019-05-11T21:00:59.941Z,18.70
2019-05-11T21:03:28.593Z,12.07
2019-05-11T21:05:58.579Z,8.10
2019-05-11T21:08:28.323Z,9.43
2019-05-11T21:10:59.954Z,8.57
2019-05-11T21:13:31.255Z,7.40
2019-05-11T21:15:59.738Z,9.10
2019-05-11T21:18:28.790Z,4.27
2019-05-11T21:20:57.749Z,7.43
2019-05-11T21:23:28.801Z,5.57
2019-05-11T21:25:56.783Z,6.40
2019-05-11T21:28:30.364Z,5.50
2019-05-11T21:30:58.598Z,16.03
2019-05-11T21:33:28.319Z,27.10
2019-05-11T21:36:00.469Z,19.23
2019-05-11T21:38:31.573Z,49.93
2019-05-11T21:40:57.960Z,5.03
2019-05-11T21:43:29.676Z,7.00
2019-05-11T21:46:01.317Z,7.63
2019-05-11T21:48:31.605Z,6.73
2019-05-11T21:51:00.247Z,10.00
2019-05-11T21:53:31.763Z,9.23
2019-05-11T21:56:01.877Z,9.43
2019-05-11T21:58:33.568Z,5.23
2019-05-11T22:01:03.898Z,11.13
2019-05-11T22:03:38.167Z,11.20
2019-05-11T22:06:08.578Z,10.07
2019-05-11T22:08:38.658Z,7.77
2019-05-11T22:11:08.673Z,5.97
2019-05-11T22:13:39.111Z,5.97
2019-05-11T22:16:08.668Z,7.13
2019-05-11T22:18:42.840Z,7.60
2019-05-11T22:21:12.740Z,10.83
2019-05-11T22:23:41.330Z,5.87
2019-05-11T22:26:09.928Z,11.63
2019-05-11T22:28:40.051Z,5.60
2019-05-11T22:31:11.745Z,8.30
2019-05-11T22:33:40.273Z,7.73
2019-05-11T22:36:08.879Z,11.40
2019-05-11T22:38:38.685Z,6.87
2019-05-11T22:41:11.276Z,9.27
2019-05-11T22:43:39.883Z,7.40
2019-05-11T22:46:11.614Z,8.37
2019-05-11T22:48:48.961Z,6.67
2019-05-11T22:51:18.353Z,8.10
2019-05-11T22:53:48.089Z,7.07
2019-05-11T22:56:17.555Z,5.00
2019-05-11T22:58:50.512Z,12.23
2019-05-11T23:01:19.131Z,8.00
2019-05-11T23:03:47.689Z,8.57
2019-05-11T23:06:18.068Z,6.87
2019-05-11T23:08:48.323Z,8.03
2019-05-11T23:11:17.960Z,6.80
2019-05-11T23:13:47.910Z,6.67
2019-05-11T23:16:18.039Z,10.53
2019-05-11T23:18:48.123Z,13.40
2019-05-11T23:21:16.654Z,7.80
2019-05-11T23:23:45.078Z,15.20
2019-05-11T23:26:13.530Z,6.57
2019-05-11T23:28:41.939Z,7.63
2019-05-11T23:31:10.478Z,14.37
2019-05-11T23:33:38.898Z,6.47
2019-05-11T23:36:07.842Z,12.33
2019-05-11T23:38:38.533Z,5.00
2019-05-11T23:41:08.294Z,5.33
2019-05-11T23:43:38.423Z,5.10
2019-05-11T23:46:08.262Z,7.30
2019-05-11T23:48:38.611Z,7.53
2019-05-11T23:51:08.757Z,3.97
2019-05-11T23:53:38.733Z,5.90
2019-05-11T23:56:07.431Z,11.90
2019-05-11T23:58:35.832Z,5.90
